createdAt,value
2017-01-05T00:00:22.126Z,924.45
2017-01-05T00:00:50.294Z,924.44
2017-01-05T00:01:18.463Z,924.45
2017-01-05T00:01:46.718Z,924.49
2017-01-05T00:02:14.940Z,924.51
2017-01-05T00:02:43.232Z,924.52
2017-01-05T00:03:11.308Z,924.54
2017-01-05T00:04:22.721Z,924.51
2017-01-05T00:04:50.963Z,924.54
2017-01-05T00:05:19.028Z,924.56
2017-01-05T00:05:47.138Z,924.52
2017-01-05T00:06:15.122Z,924.54
2017-01-05T00:06:43.199Z,924.54
2017-01-05T00:07:11.459Z,924.58
2017-01-05T00:07:39.619Z,924.59
2017-01-05T00:08:07.838Z,924.57
2017-01-05T00:08:36.031Z,924.59
2017-01-05T00:09:04.119Z,924.62
2017-01-05T00:10:15.530Z,924.63
2017-01-05T00:10:43.772Z,924.62
2017-01-05T00:11:12.032Z,924.61
2017-01-05T00:11:40.329Z,924.62
2017-01-05T00:12:08.587Z,924.61
2017-01-05T00:12:36.852Z,924.62
2017-01-05T00:13:05.117Z,924.61
2017-01-05T00:13:33.369Z,924.6
2017-01-05T00:14:01.400Z,924.57
2017-01-05T00:14:29.411Z,924.61
2017-01-05T00:14:57.772Z,924.57
2017-01-05T00:16:08.997Z,924.59
2017-01-05T00:16:37.337Z,924.57
2017-01-05T00:17:05.499Z,924.55
2017-01-05T00:17:33.653Z,924.5
2017-01-05T00:18:01.816Z,924.55
2017-01-05T00:18:29.891Z,924.52
2017-01-05T00:18:57.871Z,924.52
2017-01-05T00:19:26.123Z,924.51
2017-01-05T00:19:54.247Z,924.51
2017-01-05T00:20:22.442Z,924.51
2017-01-05T00:20:50.811Z,924.5
2017-01-05T00:22:02.039Z,924.5
2017-01-05T00:22:30.188Z,924.56
2017-01-05T00:22:58.351Z,924.57
2017-01-05T00:23:26.367Z,924.55
2017-01-05T00:23:54.528Z,924.59
2017-01-05T00:24:22.786Z,924.56
2017-01-05T00:24:50.859Z,924.56
2017-01-05T00:25:19.199Z,924.56
2017-01-05T00:25:47.409Z,924.56
2017-01-05T00:26:15.511Z,924.59
2017-01-05T00:26:43.782Z,924.58
2017-01-05T00:27:55.005Z,924.59
2017-01-05T00:28:23.246Z,924.57
2017-01-05T00:28:51.312Z,924.58
2017-01-05T00:29:19.242Z,924.58
2017-01-05T00:29:47.400Z,924.56
2017-01-05T00:30:15.472Z,924.58
2017-01-05T00:30:43.637Z,924.6
2017-01-05T00:31:11.609Z,924.58
2017-01-05T00:31:39.632Z,924.61
2017-01-05T00:32:07.636Z,924.58
2017-01-05T00:32:35.725Z,924.61
2017-01-05T00:33:46.765Z,924.6
2017-01-05T00:34:14.913Z,924.62
2017-01-05T00:34:43.079Z,924.61
2017-01-05T00:35:11.096Z,924.64
2017-01-05T00:35:39.168Z,924.64
2017-01-05T00:36:07.341Z,924.64
2017-01-05T00:36:35.690Z,924.63
2017-01-05T00:37:03.940Z,924.63
2017-01-05T00:37:32.066Z,924.66
2017-01-05T00:38:00.169Z,924.66
2017-01-05T00:38:28.165Z,924.64
2017-01-05T00:39:39.197Z,924.65
2017-01-05T00:40:07.343Z,924.65
2017-01-05T00:40:35.512Z,924.67
2017-01-05T00:41:03.644Z,924.7
2017-01-05T00:41:31.810Z,924.67
2017-01-05T00:41:59.881Z,924.68
2017-01-05T00:42:27.965Z,924.68
2017-01-05T00:42:56.217Z,924.7
2017-01-05T00:43:24.437Z,924.67
2017-01-05T00:43:52.455Z,924.68
2017-01-05T00:44:20.546Z,924.71
2017-01-05T00:45:31.957Z,924.71
2017-01-05T00:46:00.009Z,924.72
2017-01-05T00:46:28.078Z,924.74
2017-01-05T00:46:56.189Z,924.73
2017-01-05T00:47:24.444Z,924.75
2017-01-05T00:47:52.702Z,924.78
2017-01-05T00:48:20.868Z,924.75
2017-01-05T00:48:49.116Z,924.78
2017-01-05T00:49:17.240Z,924.76
2017-01-05T00:49:45.250Z,924.77
2017-01-05T00:50:13.421Z,924.78
2017-01-05T00:51:24.640Z,924.77
2017-01-05T00:51:52.697Z,924.8
2017-01-05T00:52:20.953Z,924.83
2017-01-05T00:52:49.162Z,924.83
2017-01-05T00:53:17.331Z,924.83
2017-01-05T00:53:45.428Z,924.84
2017-01-05T00:54:13.784Z,924.84
2017-01-05T00:54:42.134Z,924.82
2017-01-05T00:55:10.264Z,924.86
2017-01-05T00:55:38.371Z,924.83
2017-01-05T00:56:06.548Z,924.84
2017-01-05T00:57:17.680Z,924.86
2017-01-05T00:57:45.920Z,924.88
2017-01-05T00:58:14.175Z,924.9
2017-01-05T00:58:42.381Z,924.92
2017-01-05T00:59:10.638Z,924.97
2017-01-05T00:59:38.712Z,924.99
2017-01-05T01:00:07.068Z,924.96
2017-01-05T01:00:35.321Z,925
2017-01-05T01:01:03.449Z,924.97
2017-01-05T01:01:31.652Z,925.01
2017-01-05T01:01:59.922Z,925.02
2017-01-05T01:03:11.243Z,925.02
2017-01-05T01:03:39.295Z,925.08
2017-01-05T01:04:07.545Z,925.05
2017-01-05T01:04:35.839Z,925.09
2017-01-05T01:05:04.102Z,925.12
2017-01-05T01:05:32.085Z,925.14
2017-01-05T01:06:00.347Z,925.13
2017-01-05T01:06:28.692Z,925.14
2017-01-05T01:06:56.912Z,925.14
2017-01-05T01:07:25.107Z,925.16
2017-01-05T01:07:53.285Z,925.15
2017-01-05T01:09:04.695Z,925.15
2017-01-05T01:09:32.939Z,925.15
2017-01-05T01:10:01.193Z,925.19
2017-01-05T01:10:29.397Z,925.2
2017-01-05T01:10:57.658Z,925.18
2017-01-05T01:11:26.009Z,925.21
2017-01-05T01:11:54.089Z,925.17
2017-01-05T01:12:22.347Z,925.19
2017-01-05T01:12:50.567Z,925.21
2017-01-05T01:13:18.765Z,925.26
2017-01-05T01:13:46.951Z,925.24
2017-01-05T01:14:58.086Z,925.26
2017-01-05T01:15:26.158Z,925.24
2017-01-05T01:15:54.509Z,925.28
2017-01-05T01:16:22.542Z,925.29
2017-01-05T01:16:50.626Z,925.32
2017-01-05T01:17:18.882Z,925.34
2017-01-05T01:17:47.148Z,925.32
2017-01-05T01:18:15.399Z,925.34
2017-01-05T01:18:43.521Z,925.37
2017-01-05T01:19:11.819Z,925.42
2017-01-05T01:19:39.817Z,925.4
2017-01-05T01:20:50.947Z,925.41
2017-01-05T01:21:19.201Z,925.41
2017-01-05T01:21:47.460Z,925.43
2017-01-05T01:22:15.488Z,925.42
2017-01-05T01:22:43.494Z,925.44
2017-01-05T01:23:11.852Z,925.44
2017-01-05T01:23:40.018Z,925.42
2017-01-05T01:24:08.267Z,925.42
2017-01-05T01:24:36.495Z,925.42
2017-01-05T01:25:04.789Z,925.38
2017-01-05T01:25:33.061Z,925.39
2017-01-05T01:26:44.483Z,925.45
2017-01-05T01:27:12.824Z,925.43
2017-01-05T01:27:40.988Z,925.46
2017-01-05T01:28:09.294Z,925.46
2017-01-05T01:28:37.552Z,925.45
2017-01-05T01:29:05.826Z,925.48
2017-01-05T01:29:34.182Z,925.46
2017-01-05T01:30:02.431Z,925.48
2017-01-05T01:30:30.744Z,925.46
2017-01-05T01:30:58.949Z,925.47
2017-01-05T01:31:27.126Z,925.46
2017-01-05T01:32:38.448Z,925.44
2017-01-05T01:33:06.697Z,925.43
2017-01-05T01:33:34.955Z,925.43
2017-01-05T01:34:03.164Z,925.4
2017-01-05T01:34:31.519Z,925.43
2017-01-05T01:34:59.788Z,925.42
2017-01-05T01:35:28.148Z,925.39
2017-01-05T01:35:56.312Z,925.43
2017-01-05T01:36:24.348Z,925.43
2017-01-05T01:36:52.548Z,925.42
2017-01-05T01:37:20.822Z,925.44
2017-01-05T01:38:32.138Z,925.47
2017-01-05T01:39:00.489Z,925.46
2017-01-05T01:39:28.750Z,925.44
2017-01-05T01:39:57.053Z,925.41
2017-01-05T01:40:25.408Z,925.38
2017-01-05T01:40:53.582Z,925.39
2017-01-05T01:41:21.499Z,925.38
2017-01-05T01:41:49.755Z,925.42
2017-01-05T01:42:18.087Z,925.43
2017-01-05T01:42:46.331Z,925.47
2017-01-05T01:43:14.704Z,925.49
2017-01-05T01:44:25.934Z,925.51
2017-01-05T01:44:54.091Z,925.59
2017-01-05T01:45:22.275Z,925.58
2017-01-05T01:45:50.580Z,925.59
2017-01-05T01:46:18.848Z,925.6
2017-01-05T01:46:47.109Z,925.56
2017-01-05T01:47:15.373Z,925.57
2017-01-05T01:47:43.627Z,925.57
2017-01-05T01:48:11.945Z,925.56
2017-01-05T01:48:40.247Z,925.57
2017-01-05T01:49:08.424Z,925.56
2017-01-05T01:50:19.743Z,925.53
2017-01-05T01:50:47.902Z,925.55
2017-01-05T01:51:16.163Z,925.55
2017-01-05T01:51:44.308Z,925.54
2017-01-05T01:52:12.483Z,925.52
2017-01-05T01:52:40.769Z,925.5
2017-01-05T01:53:09.028Z,925.51
2017-01-05T01:53:37.279Z,925.52
2017-01-05T01:54:05.498Z,925.49
2017-01-05T01:54:33.701Z,925.53
2017-01-05T01:55:01.980Z,925.53
2017-01-05T01:56:13.313Z,925.54
2017-01-05T01:56:41.470Z,925.51
2017-01-05T01:57:09.823Z,925.5
2017-01-05T01:57:38.039Z,925.52
2017-01-05T01:58:06.295Z,925.51
2017-01-05T01:58:34.380Z,925.53
2017-01-05T01:59:02.642Z,925.52
2017-01-05T01:59:30.804Z,925.52
2017-01-05T01:59:58.930Z,925.53
2017-01-05T02:00:27.221Z,925.53
2017-01-05T02:00:55.492Z,925.55
2017-01-05T02:02:06.718Z,925.56
2017-01-05T02:02:34.869Z,925.53
2017-01-05T02:03:03.117Z,925.53
2017-01-05T02:03:31.422Z,925.54
2017-01-05T02:03:59.677Z,925.58
2017-01-05T02:04:27.941Z,925.57
2017-01-05T02:04:56.015Z,925.6
2017-01-05T02:05:24.268Z,925.61
2017-01-05T02:05:52.391Z,925.6
2017-01-05T02:06:20.588Z,925.59
2017-01-05T02:06:48.861Z,925.59
2017-01-05T02:08:00.183Z,925.59
2017-01-05T02:08:28.521Z,925.58
2017-01-05T02:08:56.871Z,925.6
2017-01-05T02:09:24.984Z,925.61
2017-01-05T02:09:53.056Z,925.62
2017-01-05T02:10:21.317Z,925.61
2017-01-05T02:10:49.579Z,925.62
2017-01-05T02:11:17.732Z,925.63
2017-01-05T02:11:45.945Z,925.66
2017-01-05T02:12:14.146Z,925.63
2017-01-05T02:12:42.511Z,925.64
2017-01-05T02:13:53.754Z,925.63
2017-01-05T02:14:22.005Z,925.66
2017-01-05T02:14:50.266Z,925.69
2017-01-05T02:15:18.381Z,925.68
2017-01-05T02:15:46.743Z,925.68
2017-01-05T02:16:15.009Z,925.7
2017-01-05T02:16:43.364Z,925.67
2017-01-05T02:17:11.616Z,925.7
2017-01-05T02:17:39.825Z,925.66
2017-01-05T02:18:08.021Z,925.64
2017-01-05T02:18:36.299Z,925.63
2017-01-05T02:19:47.703Z,925.65
2017-01-05T02:20:15.856Z,925.66
2017-01-05T02:20:44.109Z,925.64
2017-01-05T02:21:12.318Z,925.6
2017-01-05T02:21:40.391Z,925.64
2017-01-05T02:22:08.557Z,925.64
2017-01-05T02:22:36.816Z,925.62
2017-01-05T02:23:05.070Z,925.64
2017-01-05T02:23:33.376Z,925.63
2017-01-05T02:24:01.477Z,925.67
2017-01-05T02:24:29.566Z,925.67
2017-01-05T02:25:40.793Z,925.66
2017-01-05T02:26:08.851Z,925.7
2017-01-05T02:26:37.196Z,925.71
2017-01-05T02:27:05.306Z,925.67
2017-01-05T02:27:33.577Z,925.69
2017-01-05T02:28:01.836Z,925.68
2017-01-05T02:28:30.273Z,925.71
2017-01-05T02:28:58.434Z,925.7
2017-01-05T02:29:26.642Z,925.72
2017-01-05T02:29:54.744Z,925.75
2017-01-05T02:30:23.018Z,925.77
2017-01-05T02:31:34.247Z,925.82
2017-01-05T02:32:02.400Z,925.84
2017-01-05T02:32:30.752Z,925.84
2017-01-05T02:32:58.862Z,925.84
2017-01-05T02:33:27.132Z,925.84
2017-01-05T02:33:55.486Z,925.85
2017-01-05T02:34:23.745Z,925.83
2017-01-05T02:34:51.900Z,925.85
2017-01-05T02:35:20.118Z,925.83
2017-01-05T02:35:48.165Z,925.83
2017-01-05T02:36:16.438Z,925.79
2017-01-05T02:37:27.600Z,925.8
2017-01-05T02:37:55.840Z,925.78
2017-01-05T02:38:24.103Z,925.77
2017-01-05T02:38:52.308Z,925.75
2017-01-05T02:39:20.565Z,925.72
2017-01-05T02:39:48.832Z,925.74
2017-01-05T02:40:17.096Z,925.73
2017-01-05T02:40:45.345Z,925.71
2017-01-05T02:41:13.563Z,925.73
2017-01-05T02:41:41.855Z,925.7
2017-01-05T02:42:10.130Z,925.69
2017-01-05T02:43:21.355Z,925.67
2017-01-05T02:43:49.319Z,925.66
2017-01-05T02:44:17.572Z,925.64
2017-01-05T02:44:45.593Z,925.64
2017-01-05T02:45:13.764Z,925.62
2017-01-05T02:45:42.030Z,925.62
2017-01-05T02:46:10.110Z,925.6
2017-01-05T02:46:38.367Z,925.58
2017-01-05T02:47:06.586Z,925.57
2017-01-05T02:47:34.784Z,925.56
2017-01-05T02:48:03.061Z,925.58
2017-01-05T02:49:14.287Z,925.53
2017-01-05T02:49:42.628Z,925.54
2017-01-05T02:50:10.792Z,925.57
2017-01-05T02:50:38.994Z,925.52
2017-01-05T02:51:07.163Z,925.49
2017-01-05T02:51:35.521Z,925.48
2017-01-05T02:52:03.596Z,925.51
2017-01-05T02:52:31.946Z,925.5
2017-01-05T02:53:00.256Z,925.48
2017-01-05T02:53:28.449Z,925.51
2017-01-05T02:53:56.440Z,925.54
2017-01-05T02:55:07.756Z,925.52
2017-01-05T02:55:36.003Z,925.52
2017-01-05T02:56:04.079Z,925.47
2017-01-05T02:56:32.287Z,925.48
2017-01-05T02:57:00.540Z,925.5
2017-01-05T02:57:28.893Z,925.48
2017-01-05T02:57:57.065Z,925.49
2017-01-05T02:58:25.411Z,925.47
2017-01-05T02:58:53.627Z,925.46
2017-01-05T02:59:21.823Z,925.49
2017-01-05T02:59:50.094Z,925.46
2017-01-05T03:01:01.395Z,925.45
2017-01-05T03:01:29.756Z,925.43
2017-01-05T03:01:58.010Z,925.43
2017-01-05T03:02:26.123Z,925.46
2017-01-05T03:02:54.193Z,925.44
2017-01-05T03:03:22.551Z,925.46
2017-01-05T03:03:50.904Z,925.45
2017-01-05T03:04:19.155Z,925.45
2017-01-05T03:04:47.274Z,925.47
2017-01-05T03:05:15.471Z,925.42
2017-01-05T03:05:43.839Z,925.43
2017-01-05T03:06:55.156Z,925.46
2017-01-05T03:07:23.306Z,925.44
2017-01-05T03:07:51.376Z,925.4
2017-01-05T03:08:19.672Z,925.42
2017-01-05T03:08:47.831Z,925.43
2017-01-05T03:09:16.103Z,925.41
2017-01-05T03:09:44.361Z,925.39
2017-01-05T03:10:12.615Z,925.35
2017-01-05T03:10:40.834Z,925.39
2017-01-05T03:11:09.060Z,925.36
2017-01-05T03:11:37.433Z,925.37
2017-01-05T03:12:48.750Z,925.35
2017-01-05T03:13:17.089Z,925.32
2017-01-05T03:13:45.253Z,925.35
2017-01-05T03:14:13.457Z,925.36
2017-01-05T03:14:41.619Z,925.37
2017-01-05T03:15:09.880Z,925.33
2017-01-05T03:15:38.236Z,925.32
2017-01-05T03:16:06.496Z,925.37
2017-01-05T03:16:34.711Z,925.33
2017-01-05T03:17:02.998Z,925.31
2017-01-05T03:17:31.178Z,925.36
2017-01-05T03:18:42.597Z,925.34
2017-01-05T03:19:10.843Z,925.31
2017-01-05T03:19:39.193Z,925.27
2017-01-05T03:20:07.301Z,925.3
2017-01-05T03:20:35.372Z,925.26
2017-01-05T03:21:03.569Z,925.27
2017-01-05T03:21:31.925Z,925.28
2017-01-05T03:22:00.085Z,925.21
2017-01-05T03:22:28.211Z,925.24
2017-01-05T03:22:56.224Z,925.19
2017-01-05T03:23:24.507Z,925.19
2017-01-05T03:24:35.826Z,925.18
2017-01-05T03:25:04.070Z,925.16
2017-01-05T03:25:32.425Z,925.14
2017-01-05T03:26:00.722Z,925.13
2017-01-05T03:26:29.071Z,925.1
2017-01-05T03:26:57.427Z,925.1
2017-01-05T03:27:25.502Z,925.09
2017-01-05T03:27:54.210Z,925.07
2017-01-05T03:28:22.521Z,925.05
2017-01-05T03:28:50.726Z,925.07
2017-01-05T03:29:19.095Z,925.05
2017-01-05T03:30:30.467Z,925.09
2017-01-05T03:30:58.524Z,925.08
2017-01-05T03:31:26.875Z,925.06
2017-01-05T03:31:55.074Z,925.06
2017-01-05T03:32:23.328Z,925.02
2017-01-05T03:32:51.589Z,925.05
2017-01-05T03:33:19.942Z,925.05
2017-01-05T03:33:48.196Z,925.04
2017-01-05T03:34:16.229Z,925.04
2017-01-05T03:34:44.428Z,925.04
2017-01-05T03:35:12.604Z,924.99
2017-01-05T03:36:23.920Z,925.02
2017-01-05T03:36:52.073Z,925
2017-01-05T03:37:20.426Z,925.01
2017-01-05T03:37:48.633Z,924.98
2017-01-05T03:38:16.891Z,925
2017-01-05T03:38:45.066Z,925.02
2017-01-05T03:39:13.141Z,924.99
2017-01-05T03:39:41.400Z,924.99
2017-01-05T03:40:09.427Z,924.94
2017-01-05T03:40:37.626Z,924.97
2017-01-05T03:41:05.808Z,924.98
2017-01-05T03:42:16.846Z,924.98
2017-01-05T03:42:44.992Z,924.98
2017-01-05T03:43:13.250Z,924.94
2017-01-05T03:43:41.463Z,924.95
2017-01-05T03:44:09.712Z,924.92
2017-01-05T03:44:37.977Z,924.94
2017-01-05T03:45:06.330Z,924.94
2017-01-05T03:45:34.579Z,924.92
2017-01-05T03:46:02.798Z,924.93
2017-01-05T03:46:31.003Z,924.95
2017-01-05T03:46:59.278Z,924.95
2017-01-05T03:48:10.594Z,924.96
2017-01-05T03:48:38.746Z,924.98
2017-01-05T03:49:07.004Z,924.98
2017-01-05T03:49:35.305Z,924.98
2017-01-05T03:50:03.655Z,924.96
2017-01-05T03:50:32.018Z,924.97
2017-01-05T03:51:00.574Z,924.94
2017-01-05T03:51:28.734Z,924.94
2017-01-05T03:51:56.953Z,924.97
2017-01-05T03:52:25.250Z,924.98
2017-01-05T03:52:53.524Z,924.98
2017-01-05T03:54:04.746Z,924.97
2017-01-05T03:54:33.014Z,924.97
2017-01-05T03:55:01.362Z,924.98
2017-01-05T03:55:29.663Z,924.95
2017-01-05T03:55:58.023Z,924.96
2017-01-05T03:56:26.195Z,924.92
2017-01-05T03:56:54.362Z,924.96
2017-01-05T03:57:22.710Z,924.94
2017-01-05T03:57:51.018Z,924.95
2017-01-05T03:58:19.316Z,924.93
2017-01-05T03:58:47.686Z,924.93
2017-01-05T03:59:58.906Z,924.94
2017-01-05T04:00:27.053Z,924.9
2017-01-05T04:00:55.218Z,924.88
2017-01-05T04:01:23.518Z,924.85
2017-01-05T04:01:51.871Z,924.88
2017-01-05T04:02:20.231Z,924.85
2017-01-05T04:02:48.497Z,924.87
2017-01-05T04:03:16.669Z,924.84
2017-01-05T04:03:44.970Z,924.84
2017-01-05T04:04:13.260Z,924.84
2017-01-05T04:04:41.529Z,924.85
2017-01-05T04:05:52.850Z,924.85
2017-01-05T04:06:21.004Z,924.82
2017-01-05T04:06:49.160Z,924.8
2017-01-05T04:07:17.188Z,924.8
2017-01-05T04:07:45.533Z,924.76
2017-01-05T04:08:13.703Z,924.81
2017-01-05T04:08:41.964Z,924.75
2017-01-05T04:09:10.308Z,924.74
2017-01-05T04:09:38.524Z,924.72
2017-01-05T04:10:06.719Z,924.71
2017-01-05T04:10:35.088Z,924.72
2017-01-05T04:11:46.498Z,924.68
2017-01-05T04:12:14.656Z,924.68
2017-01-05T04:12:42.919Z,924.67
2017-01-05T04:13:11.126Z,924.69
2017-01-05T04:13:39.480Z,924.66
2017-01-05T04:14:07.846Z,924.64
2017-01-05T04:14:36.011Z,924.67
2017-01-05T04:15:04.363Z,924.68
2017-01-05T04:15:32.673Z,924.68
2017-01-05T04:16:00.870Z,924.66
2017-01-05T04:16:29.062Z,924.65
2017-01-05T04:17:40.385Z,924.63
2017-01-05T04:18:08.634Z,924.64
2017-01-05T04:18:36.989Z,924.62
2017-01-05T04:19:05.015Z,924.62
2017-01-05T04:19:33.273Z,924.6
2017-01-05T04:20:01.440Z,924.62
2017-01-05T04:20:29.609Z,924.59
2017-01-05T04:20:57.861Z,924.58
2017-01-05T04:21:26.174Z,924.59
2017-01-05T04:21:54.466Z,924.55
2017-01-05T04:22:22.740Z,924.54
2017-01-05T04:23:33.871Z,924.52
2017-01-05T04:24:02.112Z,924.52
2017-01-05T04:24:30.460Z,924.54
2017-01-05T04:24:58.576Z,924.53
2017-01-05T04:25:26.834Z,924.5
2017-01-05T04:25:55.005Z,924.51
2017-01-05T04:26:23.173Z,924.47
2017-01-05T04:26:51.422Z,924.44
2017-01-05T04:27:19.727Z,924.46
2017-01-05T04:27:47.773Z,924.46
2017-01-05T04:28:16.045Z,924.43
2017-01-05T04:29:27.173Z,924.43
2017-01-05T04:29:55.323Z,924.41
2017-01-05T04:30:23.579Z,924.4
2017-01-05T04:30:51.694Z,924.37
2017-01-05T04:31:20.040Z,924.36
2017-01-05T04:31:48.117Z,924.37
2017-01-05T04:32:16.375Z,924.39
2017-01-05T04:32:44.723Z,924.36
2017-01-05T04:33:12.662Z,924.31
2017-01-05T04:33:40.605Z,924.31
2017-01-05T04:34:08.594Z,924.32
2017-01-05T04:35:19.999Z,924.3
2017-01-05T04:35:48.058Z,924.32
2017-01-05T04:36:16.214Z,924.3
2017-01-05T04:36:44.328Z,924.3
2017-01-05T04:37:12.585Z,924.3
2017-01-05T04:37:40.750Z,924.27
2017-01-05T04:38:09.012Z,924.28
2017-01-05T04:38:37.261Z,924.31
2017-01-05T04:39:05.474Z,924.29
2017-01-05T04:39:33.673Z,924.31
2017-01-05T04:40:01.669Z,924.28
2017-01-05T04:41:12.987Z,924.32
2017-01-05T04:41:41.142Z,924.31
2017-01-05T04:42:09.304Z,924.28
2017-01-05T04:42:37.413Z,924.28
2017-01-05T04:43:05.763Z,924.25
2017-01-05T04:43:33.845Z,924.29
2017-01-05T04:44:02.201Z,924.29
2017-01-05T04:44:30.362Z,924.28
2017-01-05T04:44:58.576Z,924.29
2017-01-05T04:45:26.773Z,924.26
2017-01-05T04:45:55.135Z,924.27
2017-01-05T04:47:06.360Z,924.28
2017-01-05T04:47:34.604Z,924.24
2017-01-05T04:48:02.763Z,924.21
2017-01-05T04:48:30.876Z,924.23
2017-01-05T04:48:59.036Z,924.2
2017-01-05T04:49:27.205Z,924.2
2017-01-05T04:49:55.375Z,924.2
2017-01-05T04:50:23.540Z,924.19
2017-01-05T04:50:51.842Z,924.22
2017-01-05T04:51:19.763Z,924.2
2017-01-05T04:51:48.037Z,924.21
2017-01-05T04:52:59.450Z,924.21
2017-01-05T04:53:27.689Z,924.23
2017-01-05T04:53:55.944Z,924.19
2017-01-05T04:54:24.143Z,924.17
2017-01-05T04:54:52.393Z,924.21
2017-01-05T04:55:20.468Z,924.17
2017-01-05T04:55:48.633Z,924.19
2017-01-05T04:56:16.882Z,924.15
2017-01-05T04:56:45.007Z,924.17
2017-01-05T04:57:13.204Z,924.15
2017-01-05T04:57:41.474Z,924.16
2017-01-05T04:58:52.785Z,924.16
2017-01-05T04:59:21.026Z,924.12
2017-01-05T04:59:49.375Z,924.12
2017-01-05T05:00:17.393Z,924.11
2017-01-05T05:00:45.742Z,924.11
2017-01-05T05:01:13.915Z,924.11
2017-01-05T05:01:42.176Z,924.14
2017-01-05T05:02:10.518Z,924.12
2017-01-05T05:02:38.546Z,924.12
2017-01-05T05:03:06.737Z,924.06
2017-01-05T05:03:35.007Z,924.12
2017-01-05T05:04:46.317Z,924.11
2017-01-05T05:05:14.554Z,924.12
2017-01-05T05:05:42.805Z,924.09
2017-01-05T05:06:11.102Z,924.09
2017-01-05T05:06:39.362Z,924.11
2017-01-05T05:07:07.536Z,924.07
2017-01-05T05:07:35.800Z,924.11
2017-01-05T05:08:03.958Z,924.11
2017-01-05T05:08:32.082Z,924.09
2017-01-05T05:09:00.368Z,924.04
2017-01-05T05:09:28.725Z,924.08
2017-01-05T05:10:40.036Z,924.06
2017-01-05T05:11:08.276Z,924.03
2017-01-05T05:11:36.528Z,924.05
2017-01-05T05:12:04.732Z,924.04
2017-01-05T05:12:32.988Z,924.05
2017-01-05T05:13:01.157Z,924.02
2017-01-05T05:13:29.511Z,924.03
2017-01-05T05:13:57.857Z,924.04
2017-01-05T05:14:25.979Z,924.06
2017-01-05T05:14:54.269Z,924.01
2017-01-05T05:15:22.540Z,924.04
2017-01-05T05:16:33.951Z,924.06
2017-01-05T05:17:02.200Z,924.03
2017-01-05T05:17:30.556Z,924.03
2017-01-05T05:17:58.855Z,924.01
2017-01-05T05:18:27.116Z,924.01
2017-01-05T05:18:55.471Z,923.99
2017-01-05T05:19:23.641Z,924.02
2017-01-05T05:19:51.888Z,923.98
2017-01-05T05:20:20.203Z,923.99
2017-01-05T05:20:48.493Z,923.95
2017-01-05T05:21:16.764Z,923.95
2017-01-05T05:22:27.900Z,923.95
2017-01-05T05:22:56.048Z,923.92
2017-01-05T05:23:24.398Z,923.88
2017-01-05T05:23:52.696Z,923.92
2017-01-05T05:24:20.856Z,923.87
2017-01-05T05:24:49.030Z,923.87
2017-01-05T05:25:17.197Z,923.84
2017-01-05T05:25:45.447Z,923.83
2017-01-05T05:26:13.754Z,923.86
2017-01-05T05:26:42.047Z,923.87
2017-01-05T05:27:10.316Z,923.84
2017-01-05T05:28:21.632Z,923.84
2017-01-05T05:28:49.970Z,923.82
2017-01-05T05:29:18.318Z,923.86
2017-01-05T05:29:46.430Z,923.85
2017-01-05T05:30:14.682Z,923.87
2017-01-05T05:30:42.752Z,923.84
2017-01-05T05:31:11.104Z,923.83
2017-01-05T05:31:39.259Z,923.83
2017-01-05T05:32:07.287Z,923.83
2017-01-05T05:32:35.484Z,923.79
2017-01-05T05:33:03.661Z,923.84
2017-01-05T05:34:14.972Z,923.81
2017-01-05T05:34:43.120Z,923.78
2017-01-05T05:35:11.463Z,923.79
2017-01-05T05:35:39.761Z,923.78
2017-01-05T05:36:07.937Z,923.79
2017-01-05T05:36:36.192Z,923.75
2017-01-05T05:37:04.357Z,923.76
2017-01-05T05:37:32.513Z,923.76
2017-01-05T05:38:00.725Z,923.69
2017-01-05T05:38:28.922Z,923.78
2017-01-05T05:38:57.193Z,923.75
2017-01-05T05:40:08.601Z,923.77
2017-01-05T05:40:36.845Z,923.75
2017-01-05T05:41:05.097Z,923.75
2017-01-05T05:41:33.395Z,923.76
2017-01-05T05:42:01.561Z,923.77
2017-01-05T05:42:29.906Z,923.79
2017-01-05T05:42:58.163Z,923.78
2017-01-05T05:43:26.410Z,923.76
2017-01-05T05:43:54.620Z,923.76
2017-01-05T05:44:22.724Z,923.75
2017-01-05T05:44:50.902Z,923.77
2017-01-05T05:46:02.122Z,923.71
2017-01-05T05:46:30.272Z,923.74
2017-01-05T05:46:58.428Z,923.73
2017-01-05T05:47:26.540Z,923.71
2017-01-05T05:47:54.732Z,923.74
2017-01-05T05:48:22.995Z,923.73
2017-01-05T05:48:51.255Z,923.73
2017-01-05T05:49:19.438Z,923.72
2017-01-05T05:49:47.653Z,923.72
2017-01-05T05:50:15.853Z,923.73
2017-01-05T05:50:44.218Z,923.75
2017-01-05T05:51:55.443Z,923.79
2017-01-05T05:52:23.777Z,923.79
2017-01-05T05:52:52.030Z,923.75
2017-01-05T05:53:20.230Z,923.79
2017-01-05T05:53:48.485Z,923.76
2017-01-05T05:54:16.839Z,923.8
2017-01-05T05:54:45.098Z,923.74
2017-01-05T05:55:13.349Z,923.77
2017-01-05T05:55:41.565Z,923.74
2017-01-05T05:56:09.669Z,923.74
2017-01-05T05:56:37.849Z,923.73
2017-01-05T05:57:49.067Z,923.73
2017-01-05T05:58:17.218Z,923.71
2017-01-05T05:58:45.472Z,923.73
2017-01-05T05:59:13.677Z,923.7
2017-01-05T05:59:41.939Z,923.72
2017-01-05T06:00:10.109Z,923.74
2017-01-05T06:00:38.094Z,923.71
2017-01-05T06:01:06.162Z,923.71
2017-01-05T06:01:34.096Z,923.73
2017-01-05T06:02:02.196Z,923.74
2017-01-05T06:02:30.380Z,923.76
2017-01-05T06:03:41.694Z,923.73
2017-01-05T06:04:09.939Z,923.77
2017-01-05T06:04:38.204Z,923.78
2017-01-05T06:05:06.405Z,923.78
2017-01-05T06:05:34.599Z,923.79
2017-01-05T06:06:02.865Z,923.8
2017-01-05T06:06:31.038Z,923.8
2017-01-05T06:06:59.378Z,923.82
2017-01-05T06:07:27.591Z,923.83
2017-01-05T06:07:55.599Z,923.85
2017-01-05T06:08:23.875Z,923.86
2017-01-05T06:09:35.286Z,923.84
2017-01-05T06:10:03.529Z,923.87
2017-01-05T06:10:31.875Z,923.88
2017-01-05T06:11:00.174Z,923.86
2017-01-05T06:11:28.340Z,923.85
2017-01-05T06:11:56.502Z,923.86
2017-01-05T06:12:24.664Z,923.89
2017-01-05T06:12:52.733Z,923.89
2017-01-05T06:13:20.857Z,923.85
2017-01-05T06:13:48.963Z,923.86
2017-01-05T06:14:17.150Z,923.86
2017-01-05T06:15:28.280Z,923.85
2017-01-05T06:15:56.469Z,923.88
2017-01-05T06:16:24.722Z,923.88
2017-01-05T06:16:52.742Z,923.88
2017-01-05T06:17:20.899Z,923.87
2017-01-05T06:17:49.075Z,923.88
2017-01-05T06:18:17.244Z,923.88
2017-01-05T06:18:45.306Z,923.89
2017-01-05T06:19:13.438Z,923.89
2017-01-05T06:19:41.641Z,923.89
2017-01-05T06:20:09.912Z,923.91
2017-01-05T06:21:21.227Z,923.91
2017-01-05T06:21:49.467Z,923.95
2017-01-05T06:22:17.538Z,923.88
2017-01-05T06:22:45.559Z,923.89
2017-01-05T06:23:13.538Z,923.91
2017-01-05T06:23:41.801Z,923.89
2017-01-05T06:24:10.060Z,923.88
2017-01-05T06:24:38.123Z,923.86
2017-01-05T06:25:06.428Z,923.85
2017-01-05T06:25:34.528Z,923.9
2017-01-05T06:26:02.709Z,923.89
2017-01-05T06:27:13.835Z,923.88
2017-01-05T06:27:41.985Z,923.86
2017-01-05T06:28:10.239Z,923.84
2017-01-05T06:28:38.445Z,923.85
2017-01-05T06:29:06.609Z,923.84
2017-01-05T06:29:34.878Z,923.84
2017-01-05T06:30:03.043Z,923.86
2017-01-05T06:30:31.292Z,923.84
2017-01-05T06:30:59.419Z,923.86
2017-01-05T06:31:27.528Z,923.83
2017-01-05T06:31:55.712Z,923.85
2017-01-05T06:33:07.123Z,923.85
2017-01-05T06:33:35.365Z,923.86
2017-01-05T06:34:03.719Z,923.83
2017-01-05T06:34:31.923Z,923.9
2017-01-05T06:35:00.271Z,923.91
2017-01-05T06:35:28.342Z,923.88
2017-01-05T06:35:56.603Z,923.9
2017-01-05T06:36:24.857Z,923.9
2017-01-05T06:36:52.887Z,923.94
2017-01-05T06:37:21.080Z,923.92
2017-01-05T06:37:49.438Z,923.94
2017-01-05T06:39:00.755Z,923.9
2017-01-05T06:39:28.901Z,923.93
2017-01-05T06:39:57.066Z,923.93
2017-01-05T06:40:25.177Z,923.94
2017-01-05T06:40:53.435Z,923.95
2017-01-05T06:41:21.695Z,923.94
2017-01-05T06:41:49.860Z,923.92